createdAt,value
2022-11-29T00:02:08.574Z,97721.81
2022-11-29T00:04:39.939Z,97722.43
2022-11-29T00:07:10.739Z,97724.61
2022-11-29T00:09:42.187Z,97722.48
2022-11-29T00:12:15.759Z,97721.66
2022-11-29T00:14:47.124Z,97721.86
2022-11-29T00:17:18.141Z,97722.94
2022-11-29T00:19:47.890Z,97723.05
2022-11-29T00:22:18.874Z,97719.42
2022-11-29T00:24:49.827Z,97723.73
2022-11-29T00:27:20.856Z,97718.60
2022-11-29T00:29:51.865Z,97717.48
2022-11-29T00:32:22.752Z,97716.97
2022-11-29T00:34:58.255Z,97721.63
2022-11-29T00:37:30.531Z,97715.48
2022-11-29T00:40:01.574Z,97713.20
2022-11-29T00:42:34.053Z,97713.15
2022-11-29T00:45:05.262Z,97709.80
2022-11-29T00:47:36.169Z,97715.49
2022-11-29T00:50:09.070Z,97712.19
2022-11-29T00:52:40.107Z,97712.34
2022-11-29T00:55:12.081Z,97712.90
2022-11-29T00:57:43.035Z,97712.09
2022-11-29T01:00:15.723Z,97709.04
2022-11-29T01:02:46.766Z,97710.21
2022-11-29T01:05:17.707Z,97707.77
2022-11-29T01:07:48.754Z,97708.80
2022-11-29T01:10:19.722Z,97702.96
2022-11-29T01:12:51.222Z,97705.20
2022-11-29T01:15:22.469Z,97704.65
2022-11-29T01:17:53.667Z,97704.24
2022-11-29T01:20:24.834Z,97704.04
2022-11-29T01:22:54.557Z,97709.12
2022-11-29T01:25:25.479Z,97708.05
2022-11-29T01:27:56.834Z,97705.83
2022-11-29T01:30:28.111Z,97705.36
2022-11-29T01:32:59.135Z,97706.42
2022-11-29T01:35:30.085Z,97705.26
2022-11-29T01:38:00.967Z,97704.59
2022-11-29T01:40:34.895Z,97708.97
2022-11-29T01:43:07.035Z,97704.54
2022-11-29T01:45:39.974Z,97708.00
2022-11-29T01:48:11.994Z,97708.20
2022-11-29T01:50:43.720Z,97709.38
2022-11-29T01:53:16.454Z,97708.71
2022-11-29T01:55:53.193Z,97707.52
2022-11-29T01:58:24.613Z,97709.33
2022-11-29T02:00:55.539Z,97707.59
2022-11-29T02:03:26.500Z,97708.41
2022-11-29T02:05:57.675Z,97711.10
2022-11-29T02:08:34.515Z,97712.16
2022-11-29T02:11:25.200Z,97712.58
2022-11-29T02:14:09.714Z,97709.88
2022-11-29T02:16:53.609Z,97713.13
2022-11-29T02:19:49.374Z,97711.91
2022-11-29T02:22:24.656Z,97715.52
2022-11-29T02:25:19.135Z,97718.32
2022-11-29T02:28:31.926Z,97719.23
2022-11-29T02:31:46.717Z,97721.36
2022-11-29T02:34:35.492Z,97722.84
2022-11-29T02:37:32.674Z,97720.86
2022-11-29T02:40:32.761Z,97720.65
2022-11-29T02:43:28.085Z,97719.73
2022-11-29T02:46:13.944Z,97722.48
2022-11-29T02:48:59.078Z,97721.20
2022-11-29T02:51:35.998Z,97726.34
2022-11-29T02:54:16.684Z,97730.30
2022-11-29T02:56:53.102Z,97731.78
2022-11-29T02:59:41.597Z,97736.81
2022-11-29T03:02:21.571Z,97735.48
2022-11-29T03:05:04.607Z,97737.71
2022-11-29T03:07:51.516Z,97737.26
2022-11-29T03:10:32.668Z,97738.38
2022-11-29T03:13:10.342Z,97739.64
2022-11-29T03:15:42.667Z,97738.42
2022-11-29T03:18:29.774Z,97737.52
2022-11-29T03:21:10.993Z,97736.80
2022-11-29T03:23:47.748Z,97744.11
2022-11-29T03:26:24.396Z,97747.46
2022-11-29T03:29:01.379Z,97747.11
2022-11-29T03:31:36.290Z,97750.32
2022-11-29T03:34:19.299Z,97751.94
2022-11-29T03:36:59.487Z,97751.59
2022-11-29T03:39:40.157Z,97748.73
2022-11-29T03:42:17.058Z,97748.47
2022-11-29T03:44:55.254Z,97747.08
2022-11-29T03:47:32.658Z,97747.64
2022-11-29T03:50:07.912Z,97752.57
2022-11-29T03:52:48.663Z,97752.02
2022-11-29T03:55:47.733Z,97755.32
2022-11-29T03:58:33.303Z,97753.95
2022-11-29T04:01:30.486Z,97756.35
2022-11-29T04:04:31.941Z,97757.61
2022-11-29T04:07:20.729Z,97760.25
2022-11-29T04:10:09.319Z,97759.66
2022-11-29T04:13:16.446Z,97756.77
2022-11-29T04:16:11.863Z,97760.19
2022-11-29T04:19:08.592Z,97761.81
2022-11-29T04:22:00.354Z,97763.13
2022-11-29T04:25:06.897Z,97767.95
2022-11-29T04:28:14.381Z,97770.06
2022-11-29T04:30:57.848Z,97771.42
2022-11-29T04:33:58.379Z,97771.82
2022-11-29T04:36:50.020Z,97776.04
2022-11-29T04:39:48.850Z,97779.59
2022-11-29T04:42:48.864Z,97778.36
2022-11-29T04:45:49.109Z,97779.55
2022-11-29T04:48:44.028Z,97783.70
2022-11-29T04:51:24.688Z,97782.77
2022-11-29T04:54:03.083Z,97783.90
2022-11-29T04:56:42.834Z,97781.82
2022-11-29T04:59:19.697Z,97787.52
2022-11-29T05:02:03.080Z,97792.70
2022-11-29T05:04:42.207Z,97791.95
2022-11-29T05:07:22.839Z,97793.66
2022-11-29T05:10:00.329Z,97797.00
2022-11-29T05:12:39.770Z,97799.48
2022-11-29T05:15:40.824Z,97800.66
2022-11-29T05:18:23.105Z,97803.96
2022-11-29T05:21:01.588Z,97807.59
2022-11-29T05:23:41.101Z,97811.20
2022-11-29T05:26:17.669Z,97811.55
2022-11-29T05:28:57.882Z,97810.84
2022-11-29T05:31:56.827Z,97815.20
2022-11-29T05:35:00.298Z,97814.70
2022-11-29T05:37:44.311Z,97813.48
2022-11-29T05:40:38.364Z,97817.15
2022-11-29T05:43:19.925Z,97820.01
2022-11-29T05:45:56.680Z,97819.33
2022-11-29T05:48:35.905Z,97822.43
2022-11-29T05:51:21.127Z,97822.34
2022-11-29T05:54:01.995Z,97820.77
2022-11-29T05:56:44.329Z,97821.79
2022-11-29T05:59:19.425Z,97820.52
2022-11-29T06:01:57.466Z,97824.17
2022-11-29T06:04:34.497Z,97822.79
2022-11-29T06:07:12.339Z,97830.63
2022-11-29T06:09:50.016Z,97827.17
2022-11-29T06:12:22.457Z,97833.29
2022-11-29T06:15:13.764Z,97830.80
2022-11-29T06:18:01.526Z,97832.68
2022-11-29T06:20:58.643Z,97834.20
2022-11-29T06:23:49.542Z,97842.70
2022-11-29T06:26:40.870Z,97844.23
2022-11-29T06:29:30.783Z,97845.40
2022-11-29T06:32:13.692Z,97849.92
2022-11-29T06:34:53.370Z,97854.41
2022-11-29T06:37:28.746Z,97859.03
2022-11-29T06:40:00.369Z,97858.98
2022-11-29T06:42:31.426Z,97862.49
2022-11-29T06:45:03.662Z,97861.14
2022-11-29T06:47:44.020Z,97864.71
2022-11-29T06:50:31.350Z,97861.98
2022-11-29T06:53:08.768Z,97868.33
2022-11-29T06:55:49.419Z,97866.95
2022-11-29T06:58:36.843Z,97868.58
2022-11-29T07:01:17.752Z,97870.42
2022-11-29T07:04:10.591Z,97868.18
2022-11-29T07:06:42.636Z,97868.64
2022-11-29T07:09:18.481Z,97869.85
2022-11-29T07:11:52.124Z,97879.81
2022-11-29T07:14:24.620Z,97878.42
2022-11-29T07:17:05.223Z,97879.23
2022-11-29T07:19:46.167Z,97878.53
2022-11-29T07:22:33.087Z,97883.11
2022-11-29T07:25:18.063Z,97882.20
2022-11-29T07:27:56.097Z,97881.29
2022-11-29T07:30:35.204Z,97884.55
2022-11-29T07:33:15.737Z,97886.02
2022-11-29T07:35:54.532Z,97887.52
2022-11-29T07:38:45.290Z,97893.45
2022-11-29T07:41:23.470Z,97896.41
2022-11-29T07:44:04.735Z,97898.23
2022-11-29T07:46:35.732Z,97900.84
2022-11-29T07:49:06.915Z,97900.64
2022-11-29T07:51:38.160Z,97898.41
2022-11-29T07:54:11.331Z,97898.77
2022-11-29T07:56:42.344Z,97900.30
2022-11-29T07:59:14.616Z,97899.33
2022-11-29T08:01:45.489Z,97900.89
2022-11-29T08:04:16.422Z,97899.87
2022-11-29T08:06:47.577Z,97902.96
2022-11-29T08:09:19.037Z,97903.11
2022-11-29T08:11:50.135Z,97903.73
2022-11-29T08:14:21.106Z,97905.65
2022-11-29T08:16:51.961Z,97907.19
2022-11-29T08:19:22.837Z,97909.56
2022-11-29T08:21:54.041Z,97910.86
2022-11-29T08:24:26.415Z,97909.00
2022-11-29T08:26:57.864Z,97910.56
2022-11-29T08:29:29.100Z,97908.16
2022-11-29T08:32:00.303Z,97908.13
2022-11-29T08:34:31.555Z,97908.30
2022-11-29T08:37:02.647Z,97907.97
2022-11-29T08:39:33.614Z,97909.11
2022-11-29T08:42:04.678Z,97907.00
2022-11-29T08:44:35.541Z,97908.27
2022-11-29T08:47:24.653Z,97912.34
2022-11-29T08:50:05.128Z,97910.00
2022-11-29T08:52:55.491Z,97913.61
2022-11-29T08:55:29.279Z,97910.10
2022-11-29T08:58:05.932Z,97913.48
2022-11-29T09:00:37.691Z,97915.94
2022-11-29T09:03:26.823Z,97919.33
2022-11-29T09:05:59.269Z,97926.92
2022-11-29T09:08:30.281Z,97923.52
2022-11-29T09:11:01.224Z,97931.01
2022-11-29T09:13:32.201Z,97933.11
2022-11-29T09:16:10.934Z,97936.48
2022-11-29T09:18:47.225Z,97939.79
2022-11-29T09:21:20.944Z,97943.08
2022-11-29T09:23:57.689Z,97943.49
2022-11-29T09:26:31.161Z,97943.86
2022-11-29T09:29:03.366Z,97945.77
2022-11-29T09:31:35.835Z,97943.42
2022-11-29T09:34:07.047Z,97944.48
2022-11-29T09:36:38.214Z,97946.34
2022-11-29T09:39:09.946Z,97945.36
2022-11-29T09:42:01.859Z,97950.63
2022-11-29T09:44:44.089Z,97949.52
2022-11-29T09:47:27.524Z,97951.58
2022-11-29T09:50:17.740Z,97953.11
2022-11-29T09:52:59.235Z,97950.83
2022-11-29T09:55:44.193Z,97952.56
2022-11-29T09:58:18.722Z,97952.20
2022-11-29T10:00:54.424Z,97952.23
2022-11-29T10:03:30.705Z,97949.20
2022-11-29T10:06:08.390Z,97951.11
2022-11-29T10:08:45.074Z,97949.09
2022-11-29T10:11:20.738Z,97952.58
2022-11-29T10:13:55.462Z,97948.83
2022-11-29T10:16:34.104Z,97946.25
2022-11-29T10:19:12.557Z,97948.25
2022-11-29T10:21:50.291Z,97944.45
2022-11-29T10:24:23.964Z,97947.00
2022-11-29T10:26:54.932Z,97945.38
2022-11-29T10:29:26.465Z,97950.22
2022-11-29T10:31:59.401Z,97945.23
2022-11-29T10:34:33.590Z,97944.26
2022-11-29T10:37:05.243Z,97943.23
2022-11-29T10:39:43.126Z,97939.96
2022-11-29T10:42:36.178Z,97943.34
2022-11-29T10:45:16.709Z,97940.39
2022-11-29T10:47:49.406Z,97936.66
2022-11-29T10:50:25.152Z,97936.58
2022-11-29T10:53:00.043Z,97933.69
2022-11-29T10:55:37.798Z,97930.23
2022-11-29T10:58:11.013Z,97932.09
2022-11-29T11:00:57.535Z,97931.02
2022-11-29T11:03:33.490Z,97930.06
2022-11-29T11:06:12.174Z,97927.58
2022-11-29T11:08:47.347Z,97927.14
2022-11-29T11:11:26.804Z,97929.29
2022-11-29T11:14:03.859Z,97926.21
2022-11-29T11:16:37.535Z,97929.46
2022-11-29T11:19:28.067Z,97926.27
2022-11-29T11:22:00.954Z,97928.25
2022-11-29T11:24:33.946Z,97932.95
2022-11-29T11:27:05.651Z,97929.55
2022-11-29T11:29:39.259Z,97932.45
2022-11-29T11:32:19.032Z,97933.02
2022-11-29T11:34:56.552Z,97932.50
2022-11-29T11:37:27.650Z,97932.56
2022-11-29T11:40:00.661Z,97934.09
2022-11-29T11:42:38.608Z,97930.67
2022-11-29T11:45:27.263Z,97935.05
2022-11-29T11:48:00.867Z,97933.73
2022-11-29T11:50:34.998Z,97933.55
2022-11-29T11:53:08.814Z,97937.02
2022-11-29T11:55:44.260Z,97936.81
2022-11-29T11:58:22.976Z,97938.61
2022-11-29T12:01:05.257Z,97938.61
2022-11-29T12:03:50.919Z,97944.02
2022-11-29T12:06:37.473Z,97944.96
2022-11-29T12:09:19.451Z,97942.98
2022-11-29T12:12:00.266Z,97945.27
2022-11-29T12:14:39.229Z,97947.57
2022-11-29T12:17:20.117Z,97949.09
2022-11-29T12:20:05.465Z,97947.02
2022-11-29T12:22:48.251Z,97954.66
2022-11-29T12:25:23.780Z,97954.95
2022-11-29T12:27:54.799Z,97952.25
2022-11-29T12:30:24.443Z,97953.27
2022-11-29T12:33:19.347Z,97952.90
2022-11-29T12:36:02.134Z,97957.14
2022-11-29T12:38:54.327Z,97959.23
2022-11-29T12:41:39.339Z,97957.52
2022-11-29T12:44:23.692Z,97961.66
2022-11-29T12:47:34.171Z,97959.21
2022-11-29T12:50:02.206Z,97964.41
2022-11-29T12:52:44.271Z,97963.84
2022-11-29T12:55:24.853Z,97966.84
2022-11-29T12:58:04.782Z,97963.83
2022-11-29T13:00:43.818Z,97966.16
2022-11-29T13:03:22.460Z,97963.31
2022-11-29T13:06:06.012Z,97970.30
2022-11-29T13:08:57.764Z,97972.27
2022-11-29T13:11:34.083Z,97971.29
2022-11-29T13:14:41.714Z,97972.05
2022-11-29T13:17:05.870Z,97972.98
2022-11-29T13:19:45.105Z,97973.09
2022-11-29T13:22:22.301Z,97974.41
2022-11-29T13:24:57.531Z,97974.89
2022-11-29T13:27:33.622Z,97973.09
2022-11-29T13:30:05.699Z,97974.27
2022-11-29T13:32:41.466Z,97985.16
2022-11-29T13:35:22.734Z,97983.59
2022-11-29T13:37:56.679Z,97981.65
2022-11-29T13:40:48.983Z,97979.35
2022-11-29T13:43:30.313Z,97976.61
2022-11-29T13:46:15.501Z,97981.85
2022-11-29T13:48:54.934Z,97983.98
2022-11-29T13:51:32.980Z,97985.52
2022-11-29T13:54:06.397Z,97989.03
2022-11-29T13:56:46.676Z,97990.77
2022-11-29T13:59:27.773Z,97994.58
2022-11-29T14:01:59.721Z,97996.04
2022-11-29T14:04:36.009Z,97997.41
2022-11-29T14:07:13.467Z,98002.50
2022-11-29T14:09:51.090Z,98006.73
2022-11-29T14:12:31.286Z,98005.63
2022-11-29T14:15:05.592Z,98003.89
2022-11-29T14:17:50.581Z,98005.52
2022-11-29T14:20:57.923Z,98006.93
2022-11-29T14:23:48.746Z,98004.17
2022-11-29T14:26:36.032Z,98007.21
2022-11-29T14:29:44.018Z,98009.70
2022-11-29T14:32:25.867Z,98013.62
2022-11-29T14:35:00.400Z,98012.02
2022-11-29T14:37:46.773Z,98010.38
2022-11-29T14:40:28.680Z,98012.16
2022-11-29T14:43:25.057Z,98014.89
2022-11-29T14:46:29.000Z,98015.64
2022-11-29T14:49:05.609Z,98022.50
2022-11-29T14:51:37.523Z,98022.38
2022-11-29T14:54:16.292Z,98026.48
2022-11-29T14:56:48.280Z,98028.20
2022-11-29T14:59:52.583Z,98026.46
2022-11-29T15:02:41.083Z,98028.99
2022-11-29T15:05:20.868Z,98029.05
2022-11-29T15:08:09.629Z,98031.48
2022-11-29T15:10:44.398Z,98030.00
2022-11-29T15:13:27.042Z,98036.45
2022-11-29T15:16:15.161Z,98034.45
2022-11-29T15:19:15.788Z,98035.52
2022-11-29T15:21:56.180Z,98038.16
2022-11-29T15:24:28.909Z,98038.86
2022-11-29T15:27:02.339Z,98041.86
2022-11-29T15:29:35.125Z,98046.55
2022-11-29T15:32:13.002Z,98049.96
2022-11-29T15:34:50.321Z,98049.70
2022-11-29T15:37:39.875Z,98051.89
2022-11-29T15:40:15.468Z,98053.34
2022-11-29T15:42:50.461Z,98053.05
2022-11-29T15:45:30.656Z,98051.83
2022-11-29T15:48:17.066Z,98052.43
2022-11-29T15:50:53.943Z,98049.83
2022-11-29T15:53:31.336Z,98052.78
2022-11-29T15:56:04.526Z,98055.17
2022-11-29T15:58:37.762Z,98058.67
2022-11-29T16:01:09.395Z,98059.79
2022-11-29T16:03:46.561Z,98057.23
2022-11-29T16:06:26.749Z,98063.02
2022-11-29T16:08:58.009Z,98064.09
2022-11-29T16:11:29.984Z,98066.23
2022-11-29T16:14:14.891Z,98067.55
2022-11-29T16:16:48.564Z,98072.83
2022-11-29T16:19:27.741Z,98070.70
2022-11-29T16:22:14.758Z,98071.77
2022-11-29T16:25:01.017Z,98072.34
2022-11-29T16:27:34.220Z,98075.92
2022-11-29T16:30:05.974Z,98079.42
2022-11-29T16:32:42.753Z,98080.64
2022-11-29T16:35:20.543Z,98083.31
2022-11-29T16:37:51.990Z,98086.87
2022-11-29T16:40:28.744Z,98087.69
2022-11-29T16:43:24.105Z,98092.92
2022-11-29T16:46:30.259Z,98090.88
2022-11-29T16:49:03.769Z,98091.54
2022-11-29T16:51:47.994Z,98094.78
2022-11-29T16:54:27.807Z,98091.59
2022-11-29T16:56:59.318Z,98096.71
2022-11-29T16:59:30.235Z,98096.95
2022-11-29T17:02:01.957Z,98097.59
2022-11-29T17:04:32.907Z,98100.29
2022-11-29T17:07:04.743Z,98096.73
2022-11-29T17:09:36.705Z,98096.96
2022-11-29T17:12:12.920Z,98093.50
2022-11-29T17:14:44.240Z,98098.22
2022-11-29T17:17:15.549Z,98100.52
2022-11-29T17:19:47.041Z,98103.59
2022-11-29T17:22:17.933Z,98108.07
2022-11-29T17:24:49.013Z,98104.14
2022-11-29T17:27:18.650Z,98103.64
2022-11-29T17:29:49.442Z,98108.99
2022-11-29T17:32:26.301Z,98102.33
2022-11-29T17:34:57.521Z,98108.23
2022-11-29T17:37:29.127Z,98108.83
2022-11-29T17:40:00.379Z,98111.96
2022-11-29T17:42:29.992Z,98112.45
2022-11-29T17:45:01.431Z,98111.73
2022-11-29T17:47:33.383Z,98115.28
2022-11-29T17:50:04.223Z,98116.70
2022-11-29T17:52:33.810Z,98118.48
2022-11-29T17:55:04.571Z,98120.98
2022-11-29T17:57:36.052Z,98124.70
2022-11-29T18:00:08.891Z,98129.34
2022-11-29T18:02:39.936Z,98131.46
2022-11-29T18:05:11.909Z,98131.25
2022-11-29T18:07:58.122Z,98134.23
2022-11-29T18:10:29.854Z,98132.06
2022-11-29T18:13:00.761Z,98133.22
2022-11-29T18:15:33.193Z,98133.21
2022-11-29T18:18:04.129Z,98131.75
2022-11-29T18:20:35.832Z,98130.92
2022-11-29T18:23:08.226Z,98129.66
2022-11-29T18:25:40.012Z,98132.80
2022-11-29T18:28:11.889Z,98129.83
2022-11-29T18:30:42.898Z,98134.86
2022-11-29T18:33:14.067Z,98134.91
2022-11-29T18:35:45.187Z,98134.66
2022-11-29T18:38:16.798Z,98142.20
2022-11-29T18:40:48.114Z,98139.96
2022-11-29T18:43:19.534Z,98144.03
2022-11-29T18:45:50.387Z,98145.70
2022-11-29T18:48:21.286Z,98148.61
2022-11-29T18:50:52.145Z,98148.41
2022-11-29T18:53:23.032Z,98148.34
2022-11-29T18:56:06.060Z,98147.31
2022-11-29T18:58:37.457Z,98145.69
2022-11-29T19:01:11.337Z,98148.23
2022-11-29T19:03:44.291Z,98148.27
2022-11-29T19:06:16.472Z,98153.73
2022-11-29T19:08:47.435Z,98157.77
2022-11-29T19:11:20.278Z,98162.21
2022-11-29T19:13:56.749Z,98163.92
2022-11-29T19:16:29.341Z,98166.45
2022-11-29T19:19:01.792Z,98168.42
2022-11-29T19:21:35.389Z,98172.58
2022-11-29T19:24:14.096Z,98166.98
2022-11-29T19:26:46.817Z,98167.61
2022-11-29T19:29:18.768Z,98166.75
2022-11-29T19:31:50.490Z,98172.93
2022-11-29T19:34:21.538Z,98169.08
2022-11-29T19:36:52.939Z,98173.19
2022-11-29T19:39:24.035Z,98176.43
2022-11-29T19:41:54.988Z,98178.10
2022-11-29T19:44:29.816Z,98177.88
2022-11-29T19:47:01.200Z,98179.85
2022-11-29T19:49:32.254Z,98180.70
2022-11-29T19:52:03.037Z,98182.09
2022-11-29T19:54:33.869Z,98180.70
2022-11-29T19:57:05.057Z,98182.05
2022-11-29T19:59:36.049Z,98182.98
2022-11-29T20:02:06.922Z,98186.52
2022-11-29T20:04:37.762Z,98184.13
2022-11-29T20:07:08.632Z,98186.02
2022-11-29T20:09:39.627Z,98186.64
2022-11-29T20:12:10.768Z,98187.14
2022-11-29T20:14:40.197Z,98188.84
2022-11-29T20:17:11.421Z,98191.92
2022-11-29T20:19:42.337Z,98193.65
2022-11-29T20:22:13.442Z,98194.95
2022-11-29T20:24:45.556Z,98192.15
2022-11-29T20:27:16.614Z,98195.20
2022-11-29T20:29:47.733Z,98197.45
2022-11-29T20:32:19.074Z,98199.65
2022-11-29T20:34:51.481Z,98202.81
2022-11-29T20:37:37.334Z,98204.69
2022-11-29T20:40:17.489Z,98205.79
2022-11-29T20:43:02.211Z,98207.45
2022-11-29T20:45:34.250Z,98205.36
2022-11-29T20:48:11.262Z,98208.48
2022-11-29T20:50:44.503Z,98211.11
2022-11-29T20:53:35.026Z,98210.02
2022-11-29T20:56:08.099Z,98206.83
2022-11-29T20:58:39.995Z,98209.59
2022-11-29T21:01:11.334Z,98214.71
2022-11-29T21:03:42.238Z,98217.39
2022-11-29T21:06:13.327Z,98215.36
2022-11-29T21:08:44.247Z,98218.77
2022-11-29T21:11:18.038Z,98221.05
2022-11-29T21:13:49.898Z,98226.23
2022-11-29T21:16:27.747Z,98231.06
2022-11-29T21:19:00.926Z,98230.83
2022-11-29T21:21:38.599Z,98230.86
2022-11-29T21:24:22.342Z,98236.61
2022-11-29T21:26:52.629Z,98236.25
2022-11-29T21:29:25.160Z,98238.59
2022-11-29T21:31:57.188Z,98240.70
2022-11-29T21:34:28.050Z,98239.76
2022-11-29T21:37:00.910Z,98242.01
2022-11-29T21:39:34.705Z,98241.05
2022-11-29T21:42:06.014Z,98241.48
2022-11-29T21:44:35.459Z,98239.95
2022-11-29T21:47:06.869Z,98240.17
2022-11-29T21:49:37.957Z,98239.69
2022-11-29T21:52:09.016Z,98242.77
2022-11-29T21:54:40.236Z,98241.54
2022-11-29T21:57:11.411Z,98244.63
2022-11-29T21:59:42.196Z,98241.64
2022-11-29T22:02:13.401Z,98241.85
2022-11-29T22:04:45.175Z,98237.13
2022-11-29T22:07:16.477Z,98237.50
2022-11-29T22:09:47.409Z,98235.06
2022-11-29T22:12:34.854Z,98237.36
2022-11-29T22:15:08.392Z,98232.09
2022-11-29T22:17:39.324Z,98235.22
2022-11-29T22:20:11.225Z,98237.16
2022-11-29T22:22:42.285Z,98239.13
2022-11-29T22:25:13.796Z,98242.25
2022-11-29T22:27:44.740Z,98238.43
2022-11-29T22:30:16.427Z,98239.52
2022-11-29T22:32:50.540Z,98239.25
2022-11-29T22:35:21.863Z,98236.63
2022-11-29T22:37:52.716Z,98238.23
2022-11-29T22:40:23.656Z,98237.16
2022-11-29T22:42:54.526Z,98236.14
2022-11-29T22:45:25.586Z,98233.58
2022-11-29T22:47:56.896Z,98235.30
2022-11-29T22:50:27.929Z,98235.45
2022-11-29T22:52:58.779Z,98238.98
2022-11-29T22:55:29.898Z,98240.90
2022-11-29T22:58:01.011Z,98241.89
2022-11-29T23:00:33.800Z,98242.50
2022-11-29T23:03:04.746Z,98241.54
2022-11-29T23:05:36.802Z,98244.12
2022-11-29T23:08:07.912Z,98245.16
2022-11-29T23:10:38.642Z,98243.45
2022-11-29T23:13:09.562Z,98239.98
2022-11-29T23:15:40.415Z,98241.19
2022-11-29T23:18:11.357Z,98243.30
2022-11-29T23:20:42.398Z,98244.03
2022-11-29T23:23:13.280Z,98246.10
2022-11-29T23:25:51.291Z,98246.11
2022-11-29T23:28:22.348Z,98244.56
2022-11-29T23:30:54.423Z,98243.36
2022-11-29T23:33:25.577Z,98246.21
2022-11-29T23:36:02.746Z,98244.94
2022-11-29T23:38:33.965Z,98245.42
2022-11-29T23:41:05.110Z,98244.45
2022-11-29T23:43:38.246Z,98245.09
2022-11-29T23:46:10.797Z,98239.19
2022-11-29T23:48:41.899Z,98238.60
2022-11-29T23:51:13.598Z,98238.54
2022-11-29T23:53:45.248Z,98237.80
2022-11-29T23:56:17.953Z,98236.00
2022-11-29T23:58:49.255Z,98236.00
